createdAt,value
2022-10-26T00:02:13.675Z,15.57
2022-10-26T00:06:19.126Z,13.90
2022-10-26T00:10:21.935Z,15.35
2022-10-26T00:14:24.567Z,15.93
2022-10-26T00:18:26.621Z,13.85
2022-10-26T00:22:28.540Z,14.05
2022-10-26T00:26:30.524Z,14.07
2022-10-26T00:30:32.713Z,12.90
2022-10-26T00:34:34.701Z,13.43
2022-10-26T00:38:37.743Z,13.32
2022-10-26T00:42:39.753Z,14.63
2022-10-26T00:46:41.778Z,10.93
2022-10-26T00:50:46.869Z,11.43
2022-10-26T00:54:49.152Z,14.85
2022-10-26T00:58:51.597Z,14.77
2022-10-26T01:02:56.479Z,14.30
2022-10-26T01:06:59.502Z,15.02
2022-10-26T01:11:02.295Z,12.45
2022-10-26T01:15:05.666Z,14.47
2022-10-26T01:19:51.883Z,12.57
2022-10-26T01:24:32.774Z,13.50
2022-10-26T01:29:18.915Z,12.48
2022-10-26T01:33:47.144Z,14.43
2022-10-26T01:37:58.838Z,16.77
2022-10-26T01:42:02.943Z,14.93
2022-10-26T01:46:08.116Z,13.60
2022-10-26T01:50:11.416Z,14.43
2022-10-26T01:54:13.441Z,14.25
2022-10-26T01:58:18.795Z,14.40
2022-10-26T02:02:21.136Z,14.07
2022-10-26T02:06:31.587Z,14.07
2022-10-26T02:11:02.392Z,12.73
2022-10-26T02:15:29.443Z,13.88
2022-10-26T02:19:45.499Z,13.80
2022-10-26T02:23:49.166Z,16.38
2022-10-26T02:27:56.379Z,15.10
2022-10-26T02:32:00.220Z,14.55
2022-10-26T02:36:05.786Z,13.30
2022-10-26T02:40:12.981Z,13.80
2022-10-26T02:44:18.769Z,15.25
2022-10-26T02:48:22.543Z,18.25
2022-10-26T02:52:35.115Z,18.38
2022-10-26T02:56:46.512Z,18.83
2022-10-26T03:00:50.609Z,16.27
2022-10-26T03:04:54.932Z,15.50
2022-10-26T03:08:57.078Z,28.42
2022-10-26T03:12:59.338Z,21.73
2022-10-26T03:17:01.579Z,19.33
2022-10-26T03:21:03.741Z,19.00
2022-10-26T03:25:06.529Z,23.17
2022-10-26T03:29:09.915Z,17.25
2022-10-26T03:33:12.269Z,17.45
2022-10-26T03:37:14.240Z,16.23
2022-10-26T03:41:16.548Z,16.85
2022-10-26T03:45:18.489Z,22.17
2022-10-26T03:49:21.149Z,13.70
2022-10-26T03:53:23.360Z,15.48
2022-10-26T03:57:25.722Z,14.07
2022-10-26T04:01:27.889Z,13.15
2022-10-26T04:05:30.196Z,14.15
2022-10-26T04:09:32.162Z,20.13
2022-10-26T04:13:34.403Z,18.60
2022-10-26T04:17:36.475Z,15.23
2022-10-26T04:21:38.631Z,16.35
2022-10-26T04:25:40.819Z,22.42
2022-10-26T04:29:42.992Z,22.33
2022-10-26T04:33:45.005Z,19.63
2022-10-26T04:37:47.260Z,22.02
2022-10-26T04:41:49.245Z,20.85
2022-10-26T04:45:55.589Z,24.63
2022-10-26T04:49:57.766Z,18.70
2022-10-26T04:53:59.779Z,24.23
2022-10-26T04:58:02.323Z,17.50
2022-10-26T05:02:04.733Z,17.30
2022-10-26T05:06:06.887Z,14.15
2022-10-26T05:10:09.536Z,16.17
2022-10-26T05:19:03.268Z,15.65
2022-10-26T05:23:07.686Z,15.60
2022-10-26T05:31:11.867Z,13.55
2022-10-26T05:35:14.104Z,12.25
2022-10-26T05:39:16.160Z,14.73
2022-10-26T05:43:24.017Z,14.20
2022-10-26T05:47:25.936Z,16.25
2022-10-26T05:51:27.859Z,14.20
2022-10-26T05:55:30.433Z,14.40
2022-10-26T05:59:32.728Z,18.13
2022-10-26T06:03:46.338Z,18.60
2022-10-26T06:07:48.831Z,19.05
2022-10-26T06:11:51.383Z,18.52
2022-10-26T06:16:12.074Z,16.35
2022-10-26T06:20:31.850Z,15.65
2022-10-26T06:25:15.287Z,14.05
2022-10-26T06:29:32.077Z,14.35
2022-10-26T06:33:34.561Z,15.65
2022-10-26T06:37:37.779Z,15.85
2022-10-26T06:41:40.221Z,16.83
2022-10-26T06:45:48.887Z,17.17
2022-10-26T06:50:29.386Z,20.52
2022-10-26T06:54:53.459Z,16.95
2022-10-26T06:59:04.759Z,14.60
2022-10-26T07:03:08.964Z,18.50
2022-10-26T07:07:14.377Z,19.88
2022-10-26T07:11:16.834Z,16.52
2022-10-26T07:15:18.989Z,17.70
2022-10-26T07:19:20.967Z,16.23
2022-10-26T07:23:23.816Z,18.77
2022-10-26T07:27:25.781Z,18.02
2022-10-26T07:31:27.803Z,16.23
2022-10-26T07:35:30.307Z,18.25
2022-10-26T07:39:32.931Z,18.10
2022-10-26T07:43:34.930Z,19.88
2022-10-26T07:47:36.877Z,19.08
2022-10-26T07:51:38.796Z,22.45
2022-10-26T07:55:40.863Z,24.00
2022-10-26T07:59:42.945Z,22.58
2022-10-26T08:03:48.949Z,23.15
2022-10-26T08:07:53.144Z,24.77
2022-10-26T08:11:55.176Z,22.65
2022-10-26T08:16:01.407Z,19.40
2022-10-26T08:20:03.909Z,18.20
2022-10-26T08:24:06.246Z,17.33
2022-10-26T08:28:08.206Z,18.50
2022-10-26T08:32:10.178Z,17.65
2022-10-26T08:36:12.660Z,19.33
2022-10-26T08:40:20.143Z,19.38
2022-10-26T08:44:36.440Z,17.85
2022-10-26T08:48:47.906Z,15.35
2022-10-26T08:53:02.170Z,15.55
2022-10-26T08:57:38.251Z,15.35
2022-10-26T09:01:40.337Z,15.13
2022-10-26T09:06:11.825Z,14.23
2022-10-26T09:14:49.754Z,12.07
2022-10-26T09:19:22.671Z,11.82
2022-10-26T09:23:55.727Z,10.98
2022-10-26T09:28:00.866Z,10.07
2022-10-26T09:32:04.123Z,9.57
2022-10-26T09:36:18.759Z,9.55
2022-10-26T09:40:47.451Z,10.10
2022-10-26T09:45:12.609Z,8.40
2022-10-26T09:49:18.395Z,8.83
2022-10-26T09:53:20.403Z,9.98
2022-10-26T09:57:22.918Z,9.30
2022-10-26T10:01:30.210Z,7.38
2022-10-26T10:05:51.756Z,8.05
2022-10-26T10:10:17.686Z,8.13
2022-10-26T10:14:19.715Z,8.35
2022-10-26T10:18:23.486Z,7.65
2022-10-26T10:22:25.979Z,7.60
2022-10-26T10:26:28.290Z,8.02
2022-10-26T10:30:33.547Z,6.43
2022-10-26T10:34:36.335Z,6.90
2022-10-26T10:38:41.010Z,7.32
2022-10-26T10:42:45.091Z,7.53
2022-10-26T10:46:47.351Z,6.95
2022-10-26T10:51:11.076Z,7.65
2022-10-26T10:55:22.798Z,7.43
2022-10-26T10:59:36.851Z,7.18
2022-10-26T11:04:06.730Z,8.18
2022-10-26T11:08:12.970Z,7.25
2022-10-26T11:12:47.021Z,8.57
2022-10-26T11:17:11.867Z,8.40
2022-10-26T11:21:30.840Z,8.45
2022-10-26T11:25:41.337Z,9.82
2022-10-26T11:29:48.577Z,9.27
2022-10-26T11:34:13.845Z,8.13
2022-10-26T11:38:46.304Z,9.27
2022-10-26T11:43:21.772Z,8.27
2022-10-26T11:47:40.848Z,8.07
2022-10-26T11:52:18.848Z,7.25
2022-10-26T11:56:38.567Z,7.43
2022-10-26T12:00:51.908Z,7.93
2022-10-26T12:05:19.837Z,8.15
2022-10-26T12:09:27.155Z,8.00
2022-10-26T12:13:42.418Z,6.97
2022-10-26T12:18:01.290Z,7.47
2022-10-26T12:22:04.230Z,8.63
2022-10-26T12:26:24.438Z,7.45
2022-10-26T12:30:31.927Z,7.18
2022-10-26T12:34:40.084Z,6.65
2022-10-26T12:38:41.984Z,6.65
2022-10-26T12:42:43.898Z,6.28
2022-10-26T12:46:45.881Z,7.88
2022-10-26T12:50:47.880Z,7.07
2022-10-26T12:55:18.197Z,7.22
2022-10-26T12:59:42.275Z,6.80
2022-10-26T13:04:07.396Z,6.20
2022-10-26T13:08:11.907Z,6.88
2022-10-26T13:12:14.558Z,5.70
2022-10-26T13:16:16.772Z,7.22
2022-10-26T13:20:19.186Z,6.68
2022-10-26T13:24:25.664Z,6.95
2022-10-26T13:28:39.798Z,5.40
2022-10-26T13:32:54.667Z,5.90
2022-10-26T13:37:21.749Z,6.13
2022-10-26T13:41:35.917Z,5.32
2022-10-26T13:50:04.394Z,5.38
2022-10-26T13:54:42.933Z,6.25
2022-10-26T13:58:52.601Z,5.93
2022-10-26T14:02:55.928Z,6.55
2022-10-26T14:06:57.968Z,6.30
2022-10-26T14:11:00.411Z,7.18
2022-10-26T14:15:09.703Z,5.88
2022-10-26T14:19:27.061Z,5.97
2022-10-26T14:23:34.818Z,6.35
2022-10-26T14:27:39.667Z,6.05
2022-10-26T14:31:41.613Z,6.30
2022-10-26T14:35:44.039Z,5.20
2022-10-26T14:39:47.814Z,6.45
2022-10-26T14:43:50.427Z,5.55
2022-10-26T14:47:52.452Z,5.85
2022-10-26T14:51:59.870Z,8.40
2022-10-26T14:56:03.612Z,8.13
2022-10-26T15:00:21.103Z,8.55
2022-10-26T15:04:29.301Z,9.52
2022-10-26T15:08:52.360Z,9.50
2022-10-26T15:12:58.346Z,9.45
2022-10-26T15:17:00.923Z,9.18
2022-10-26T15:21:03.588Z,9.15
2022-10-26T15:25:06.540Z,7.78
2022-10-26T15:29:35.421Z,7.93
2022-10-26T15:33:40.445Z,7.95
2022-10-26T15:37:42.512Z,7.70
2022-10-26T15:41:46.993Z,7.32
2022-10-26T15:45:49.615Z,7.70
2022-10-26T15:49:51.678Z,10.68
2022-10-26T15:53:54.022Z,8.70
2022-10-26T15:57:56.068Z,10.65
2022-10-26T16:01:58.217Z,9.35
2022-10-26T16:06:02.542Z,9.45
2022-10-26T16:10:04.722Z,10.93
2022-10-26T16:14:06.930Z,8.73
2022-10-26T16:18:09.411Z,10.05
2022-10-26T16:26:14.501Z,9.77
2022-10-26T16:30:17.238Z,10.05
2022-10-26T16:34:19.136Z,9.85
2022-10-26T16:38:21.103Z,10.25
2022-10-26T16:42:23.306Z,10.05
2022-10-26T16:46:25.412Z,9.73
2022-10-26T16:50:28.720Z,9.10
2022-10-26T16:54:33.322Z,9.70
2022-10-26T16:58:37.493Z,9.50
2022-10-26T17:06:41.875Z,10.55
2022-10-26T17:10:44.128Z,10.07
2022-10-26T17:14:46.143Z,9.93
2022-10-26T17:18:48.588Z,10.57
2022-10-26T17:22:51.055Z,10.50
2022-10-26T17:26:53.174Z,10.65
2022-10-26T17:31:10.440Z,12.40
2022-10-26T17:35:13.521Z,12.13
2022-10-26T17:39:16.459Z,13.82
2022-10-26T17:43:18.902Z,15.00
2022-10-26T17:47:21.192Z,12.38
2022-10-26T17:51:23.832Z,13.40
2022-10-26T17:55:25.794Z,12.82
2022-10-26T17:59:27.948Z,13.80
2022-10-26T18:03:30.097Z,14.93
2022-10-26T18:07:32.469Z,13.15
2022-10-26T18:11:34.450Z,14.48
2022-10-26T18:15:36.668Z,12.88
2022-10-26T18:19:38.845Z,13.25
2022-10-26T18:23:41.082Z,17.05
2022-10-26T18:27:43.107Z,14.32
2022-10-26T18:31:45.772Z,15.50
2022-10-26T18:35:47.699Z,13.52
2022-10-26T18:39:49.640Z,11.57
2022-10-26T18:43:55.198Z,12.52
2022-10-26T18:47:57.281Z,13.38
2022-10-26T18:52:00.150Z,12.68
2022-10-26T18:56:16.587Z,13.52
2022-10-26T19:00:19.908Z,13.05
2022-10-26T19:04:21.843Z,11.65
2022-10-26T19:08:27.811Z,12.35
2022-10-26T19:12:30.074Z,12.68
2022-10-26T19:16:45.200Z,13.40
2022-10-26T19:20:49.423Z,12.68
2022-10-26T19:24:51.412Z,13.80
2022-10-26T19:28:55.625Z,12.77
2022-10-26T19:32:57.592Z,11.75
2022-10-26T19:36:59.497Z,14.27
2022-10-26T19:41:04.266Z,12.25
2022-10-26T19:45:06.976Z,12.30
2022-10-26T19:49:09.089Z,13.23
2022-10-26T19:53:11.114Z,13.45
2022-10-26T19:57:13.101Z,13.65
2022-10-26T20:01:15.786Z,14.10
2022-10-26T20:05:17.861Z,14.10
2022-10-26T20:09:19.819Z,14.82
2022-10-26T20:13:22.350Z,13.43
2022-10-26T20:17:28.289Z,12.52
2022-10-26T20:21:30.543Z,11.93
2022-10-26T20:25:36.454Z,11.52
2022-10-26T20:29:38.468Z,12.25
2022-10-26T20:33:40.541Z,12.82
2022-10-26T20:37:42.907Z,11.38
2022-10-26T20:41:45.860Z,11.30
2022-10-26T20:45:48.359Z,11.48
2022-10-26T20:49:50.754Z,11.68
2022-10-26T20:54:05.370Z,11.27
2022-10-26T21:02:32.628Z,11.45
2022-10-26T21:06:40.359Z,11.90
2022-10-26T21:10:42.641Z,12.95
2022-10-26T21:14:44.880Z,12.85
2022-10-26T21:18:46.953Z,12.57
2022-10-26T21:22:48.924Z,13.05
2022-10-26T21:26:51.354Z,13.15
2022-10-26T21:30:53.484Z,12.63
2022-10-26T21:34:55.667Z,12.90
2022-10-26T21:38:57.640Z,13.70
2022-10-26T21:42:59.564Z,13.88
2022-10-26T21:47:02.000Z,13.02
2022-10-26T21:51:06.658Z,14.00
2022-10-26T21:55:09.217Z,14.38
2022-10-26T21:59:11.219Z,13.88
2022-10-26T22:03:13.502Z,14.68
2022-10-26T22:07:15.584Z,15.23
2022-10-26T22:11:23.075Z,14.45
2022-10-26T22:15:25.125Z,12.75
2022-10-26T22:19:27.154Z,13.27
2022-10-26T22:23:29.199Z,13.02
2022-10-26T22:27:31.462Z,12.50
2022-10-26T22:31:37.238Z,13.25
2022-10-26T22:35:39.240Z,12.68
2022-10-26T22:39:41.205Z,12.50
2022-10-26T22:43:43.529Z,12.77
2022-10-26T22:47:45.615Z,12.82
2022-10-26T22:51:47.540Z,12.90
2022-10-26T22:55:50.574Z,13.52
2022-10-26T22:59:52.515Z,11.70
2022-10-26T23:03:58.606Z,13.57
2022-10-26T23:08:03.735Z,11.00
2022-10-26T23:12:06.048Z,13.95
2022-10-26T23:16:10.818Z,12.20
2022-10-26T23:20:12.845Z,12.15
2022-10-26T23:24:14.809Z,12.80
2022-10-26T23:28:16.908Z,13.50
2022-10-26T23:32:18.919Z,10.85
2022-10-26T23:36:21.578Z,12.00
2022-10-26T23:40:23.588Z,11.40
2022-10-26T23:44:25.655Z,11.75
2022-10-26T23:48:27.936Z,11.18
2022-10-26T23:52:29.873Z,12.15
2022-10-26T23:56:31.832Z,12.07
